Time,TemperatureF,DewpointF,PressureIn,WindDirection,WindDirectionDegrees,WindSpeedMPH,WindSpeedGustMPH,Humidity,HourlyPrecipIn,Conditions,Clouds,dailyrainin,SoftwareType,DateUTC
2013-05-06 00:02:00,54.0,45.0,-100.00,NNE,20,3.0,4.0,72,0.00,,,-99.99,,2013-05-06 05:02:00,
2013-05-06 00:12:00,54.0,45.0,-100.00,NNE,20,3.0,4.0,72,0.00,,,-99.99,,2013-05-06 05:12:00,
2013-05-06 00:22:00,54.0,45.0,-100.00,NNE,20,3.0,4.0,72,0.00,,,-99.99,,2013-05-06 05:22:00,
2013-05-06 00:32:00,54.0,45.0,-100.00,NNE,20,3.0,4.0,72,0.00,,,-99.99,,2013-05-06 05:32:00,
2013-05-06 01:02:00,52.0,45.0,-100.00,NNE,30,2.0,5.0,76,0.00,,,-99.99,,2013-05-06 06:02:00,
2013-05-06 01:12:00,52.0,45.0,-100.00,NNE,30,2.0,5.0,76,0.00,,,-99.99,,2013-05-06 06:12:00,
2013-05-06 01:21:00,52.0,45.0,-100.00,NNE,30,2.0,5.0,76,0.00,,,-99.99,,2013-05-06 06:21:00,
2013-05-06 01:32:00,52.0,45.0,-100.00,NNE,30,2.0,5.0,76,0.00,,,-99.99,,2013-05-06 06:32:00,
2013-05-06 02:01:00,51.0,45.0,-100.00,NE,55,1.0,4.0,79,0.00,,,-99.99,,2013-05-06 07:01:00,
2013-05-06 02:11:00,51.0,45.0,-100.00,NE,55,1.0,4.0,79,0.00,,,-99.99,,2013-05-06 07:11:00,
2013-05-06 02:22:00,51.0,45.0,-100.00,NE,55,1.0,4.0,79,0.00,,,-99.99,,2013-05-06 07:22:00,
2013-05-06 02:31:00,51.0,45.0,-100.00,NE,55,1.0,4.0,79,0.00,,,-99.99,,2013-05-06 07:31:00,
2013-05-06 03:02:00,50.0,44.0,-100.00,NNE,20,1.0,1.0,80,0.00,,,-99.99,,2013-05-06 08:02:00,
2013-05-06 03:12:00,50.0,44.0,-100.00,NNE,20,1.0,1.0,80,0.00,,,-99.99,,2013-05-06 08:12:00,
2013-05-06 03:22:00,50.0,44.0,-100.00,NNE,20,1.0,1.0,80,0.00,,,-99.99,,2013-05-06 08:22:00,
2013-05-06 03:31:00,50.0,44.0,-100.00,NNE,20,1.0,1.0,80,0.00,,,-99.99,,2013-05-06 08:31:00,
2013-05-06 04:01:00,48.0,45.0,-100.00,North,10,3.0,5.0,87,0.00,,,-99.99,,2013-05-06 09:01:00,
2013-05-06 04:11:00,48.0,45.0,-100.00,North,10,3.0,5.0,87,0.00,,,-99.99,,2013-05-06 09:11:00,
2013-05-06 04:22:00,48.0,45.0,-100.00,North,10,3.0,5.0,87,0.00,,,-99.99,,2013-05-06 09:22:00,
2013-05-06 04:33:00,48.0,45.0,-100.00,North,10,3.0,5.0,87,0.00,,,-99.99,,2013-05-06 09:33:00,
2013-05-06 04:40:00,47.0,44.0,-100.00,North,5,1.0,2.0,87,0.00,,,-99.99,,2013-05-06 09:40:00,
2013-05-06 05:02:00,47.0,44.0,-100.00,North,5,1.0,2.0,87,0.00,,,-99.99,,2013-05-06 10:02:00,
2013-05-06 05:12:00,47.0,44.0,-100.00,North,5,1.0,2.0,87,0.00,,,-99.99,,2013-05-06 10:12:00,
2013-05-06 05:22:00,47.0,44.0,-100.00,North,5,1.0,2.0,87,0.00,,,-99.99,,2013-05-06 10:22:00,
2013-05-06 05:33:00,47.0,44.0,-100.00,North,5,1.0,2.0,87,0.00,,,-99.99,,2013-05-06 10:33:00,
2013-05-06 06:02:00,48.0,43.0,-100.00,NNE,20,2.0,4.0,81,0.00,,,-99.99,,2013-05-06 11:02:00,
2013-05-06 06:12:00,48.0,43.0,-100.00,NNE,20,2.0,4.0,81,0.00,,,-99.99,,2013-05-06 11:12:00,
2013-05-06 06:22:00,48.0,43.0,-100.00,NNE,20,2.0,4.0,81,0.00,,,-99.99,,2013-05-06 11:22:00,
2013-05-06 06:31:00,48.0,43.0,-100.00,NNE,20,2.0,4.0,81,0.00,,,-99.99,,2013-05-06 11:31:00,
2013-05-06 13:31:00,73.0,36.0,-100.00,NE,55,6.0,10.0,26,0.00,,,-99.99,,2013-05-06 18:31:00,
2013-05-06 13:43:00,73.0,36.0,-100.00,NE,55,6.0,10.0,26,0.00,,,-99.99,,2013-05-06 18:43:00,
2013-05-06 14:01:00,74.0,33.0,-100.00,ENE,70,5.0,17.0,22,0.00,,,-99.99,,2013-05-06 19:01:00,
2013-05-06 14:11:00,74.0,33.0,-100.00,ENE,70,5.0,17.0,22,0.00,,,-99.99,,2013-05-06 19:11:00,
2013-05-06 14:22:00,74.0,33.0,-100.00,ENE,70,5.0,17.0,22,0.00,,,-99.99,,2013-05-06 19:22:00,
2013-05-06 14:32:00,74.0,33.0,-100.00,ENE,70,5.0,17.0,22,0.00,,,-99.99,,2013-05-06 19:32:00,
2013-05-06 14:41:00,74.0,33.0,-100.00,ENE,70,5.0,17.0,22,0.00,,,-99.99,,2013-05-06 19:41:00,
2013-05-06 14:42:00,75.0,32.0,-100.00,East,95,5.0,8.0,20,0.00,,,-99.99,,2013-05-06 19:42:00,
2013-05-06 15:02:00,75.0,32.0,-100.00,East,95,5.0,8.0,20,0.00,,,-99.99,,2013-05-06 20:02:00,
2013-05-06 15:11:00,75.0,32.0,-100.00,East,95,5.0,8.0,20,0.00,,,-99.99,,2013-05-06 20:11:00,
2013-05-06 15:21:00,75.0,32.0,-100.00,East,95,5.0,8.0,20,0.00,,,-99.99,,2013-05-06 20:21:00,
2013-05-06 15:32:00,75.0,32.0,-100.00,East,95,5.0,8.0,20,0.00,,,-99.99,,2013-05-06 20:32:00,
2013-05-06 15:40:00,75.0,32.0,-100.00,North,0,3.0,16.0,21,0.00,,,-99.99,,2013-05-06 20:40:00,
2013-05-06 16:01:00,75.0,32.0,-100.00,North,0,3.0,16.0,21,0.00,,,-99.99,,2013-05-06 21:01:00,
2013-05-06 16:11:00,75.0,32.0,-100.00,North,0,3.0,16.0,21,0.00,,,-99.99,,2013-05-06 21:11:00,
2013-05-06 16:21:00,75.0,32.0,-100.00,North,0,3.0,16.0,21,0.00,,,-99.99,,2013-05-06 21:21:00,
2013-05-06 16:32:00,75.0,32.0,-100.00,North,0,3.0,16.0,21,0.00,,,-99.99,,2013-05-06 21:32:00,
2013-05-06 16:42:00,73.0,33.0,-100.00,SSE,160,2.0,10.0,23,0.00,,,-99.99,,2013-05-06 21:42:00,
2013-05-06 17:03:00,73.0,33.0,-100.00,SSE,160,2.0,10.0,23,0.00,,,-99.99,,2013-05-06 22:03:00,
2013-05-06 17:12:00,73.0,33.0,-100.00,SSE,160,2.0,10.0,23,0.00,,,-99.99,,2013-05-06 22:12:00,
2013-05-06 17:22:00,73.0,33.0,-100.00,SSE,160,2.0,10.0,23,0.00,,,-99.99,,2013-05-06 22:22:00,
2013-05-06 17:33:00,73.0,33.0,-100.00,SSE,160,2.0,10.0,23,0.00,,,-99.99,,2013-05-06 22:33:00,
2013-05-06 18:03:00,72.0,30.0,-100.00,East,85,4.0,13.0,21,0.00,,,-99.99,,2013-05-06 23:03:00,
2013-05-06 18:12:00,72.0,30.0,-100.00,East,85,4.0,13.0,21,0.00,,,-99.99,,2013-05-06 23:12:00,
2013-05-06 18:22:00,72.0,30.0,-100.00,East,85,4.0,13.0,21,0.00,,,-99.99,,2013-05-06 23:22:00,
2013-05-06 18:32:00,72.0,30.0,-100.00,East,85,4.0,13.0,21,0.00,,,-99.99,,2013-05-06 23:32:00,
2013-05-06 18:41:00,70.0,32.0,-100.00,East,85,4.0,6.0,24,0.00,,,-99.99,,2013-05-06 23:41:00,
2013-05-06 19:01:00,70.0,32.0,-100.00,East,85,4.0,6.0,24,0.00,,,-99.99,,2013-05-07 00:01:00,
2013-05-06 19:11:00,70.0,32.0,-100.00,East,85,4.0,6.0,24,0.00,,,-99.99,,2013-05-07 00:11:00,
2013-05-06 19:21:00,70.0,32.0,-100.00,East,85,4.0,6.0,24,0.00,,,-99.99,,2013-05-07 00:21:00,
2013-05-06 19:31:00,70.0,32.0,-100.00,East,85,4.0,6.0,24,0.00,,,-99.99,,2013-05-07 00:31:00,
2013-05-06 20:01:00,67.0,33.0,-100.00,ENE,60,2.0,2.0,28,0.00,,,-99.99,,2013-05-07 01:01:00,
2013-05-06 20:11:00,67.0,33.0,-100.00,ENE,60,2.0,2.0,28,0.00,,,-99.99,,2013-05-07 01:11:00,
2013-05-06 20:21:00,67.0,33.0,-100.00,ENE,60,2.0,2.0,28,0.00,,,-99.99,,2013-05-07 01:21:00,
2013-05-06 20:32:00,67.0,33.0,-100.00,ENE,60,2.0,2.0,28,0.00,,,-99.99,,2013-05-07 01:32:00,
2013-05-06 21:02:00,62.0,38.0,-100.00,NNW,330,0.0,1.0,41,0.00,,,-99.99,,2013-05-07 02:02:00,
2013-05-06 21:11:00,62.0,38.0,-100.00,NNW,330,0.0,1.0,41,0.00,,,-99.99,,2013-05-07 02:11:00,
2013-05-06 21:21:00,62.0,38.0,-100.00,NNW,330,0.0,1.0,41,0.00,,,-99.99,,2013-05-07 02:21:00,
2013-05-06 21:31:00,62.0,38.0,-100.00,NNW,330,0.0,1.0,41,0.00,,,-99.99,,2013-05-07 02:31:00,
2013-05-06 21:41:00,57.0,41.0,-100.00,NNE,20,0.0,1.0,54,0.00,,,-99.99,,2013-05-07 02:41:00,
2013-05-06 22:01:00,57.0,41.0,-100.00,NNE,20,0.0,1.0,54,0.00,,,-99.99,,2013-05-07 03:01:00,
2013-05-06 22:11:00,57.0,41.0,-100.00,NNE,20,0.0,1.0,54,0.00,,,-99.99,,2013-05-07 03:11:00,
2013-05-06 22:22:00,57.0,41.0,-100.00,NNE,20,0.0,1.0,54,0.00,,,-99.99,,2013-05-07 03:22:00,
2013-05-06 22:32:00,57.0,41.0,-100.00,NNE,20,0.0,1.0,54,0.00,,,-99.99,,2013-05-07 03:32:00,
2013-05-06 22:41:00,55.0,41.0,-100.00,North,-999,-999.0,-999.0,59,0.00,,,-99.99,,2013-05-07 03:41:00,
2013-05-06 23:03:00,55.0,41.0,-100.00,North,-999,-999.0,-999.0,59,0.00,,,-99.99,,2013-05-07 04:03:00,
2013-05-06 23:12:00,55.0,41.0,-100.00,North,-999,-999.0,-999.0,59,0.00,,,-99.99,,2013-05-07 04:12:00,
2013-05-06 23:23:00,55.0,41.0,-100.00,North,-999,-999.0,-999.0,59,0.00,,,-99.99,,2013-05-07 04:23:00,
2013-05-06 23:33:00,55.0,41.0,-100.00,North,-999,-999.0,-999.0,59,0.00,,,-99.99,,2013-05-07 04:33:00,